sensor_id;sensor_type;location;lat;lon;timestamp;P1;durP1;ratioP1;P2;durP2;ratioP2
52158;SDS011;38145;53.182;6.284;2023-05-07T00:01:37;25.42;;;21.45;;
52158;SDS011;38145;53.182;6.284;2023-05-07T00:04:02;30.42;;;22.48;;
52158;SDS011;38145;53.182;6.284;2023-05-07T00:06:29;26.45;;;21.08;;
52158;SDS011;38145;53.182;6.284;2023-05-07T00:08:56;28.67;;;22.10;;
52158;SDS011;38145;53.182;6.284;2023-05-07T00:11:24;29.15;;;21.55;;
52158;SDS011;38145;53.182;6.284;2023-05-07T00:13:51;27.25;;;21.15;;
52158;SDS011;38145;53.182;6.284;2023-05-07T00:16:17;25.73;;;20.77;;
52158;SDS011;38145;53.182;6.284;2023-05-07T00:18:43;26.58;;;21.77;;
52158;SDS011;38145;53.182;6.284;2023-05-07T00:21:09;27.38;;;21.38;;
52158;SDS011;38145;53.182;6.284;2023-05-07T00:23:35;28.58;;;20.58;;
52158;SDS011;38145;53.182;6.284;2023-05-07T00:26:02;25.00;;;21.52;;
52158;SDS011;38145;53.182;6.284;2023-05-07T00:28:28;31.80;;;22.77;;
52158;SDS011;38145;53.182;6.284;2023-05-07T00:30:55;26.52;;;20.35;;
52158;SDS011;38145;53.182;6.284;2023-05-07T00:33:21;30.92;;;22.63;;
52158;SDS011;38145;53.182;6.284;2023-05-07T00:35:47;27.10;;;21.70;;
52158;SDS011;38145;53.182;6.284;2023-05-07T00:38:14;30.85;;;21.45;;
52158;SDS011;38145;53.182;6.284;2023-05-07T00:40:40;28.02;;;22.35;;
52158;SDS011;38145;53.182;6.284;2023-05-07T00:43:06;30.85;;;20.67;;
52158;SDS011;38145;53.182;6.284;2023-05-07T00:45:33;29.38;;;22.65;;
52158;SDS011;38145;53.182;6.284;2023-05-07T00:48:00;29.65;;;22.85;;
52158;SDS011;38145;53.182;6.284;2023-05-07T00:52:54;27.45;;;20.85;;
52158;SDS011;38145;53.182;6.284;2023-05-07T00:55:22;26.77;;;20.93;;
52158;SDS011;38145;53.182;6.284;2023-05-07T00:57:49;30.08;;;22.52;;
52158;SDS011;38145;53.182;6.284;2023-05-07T01:00:16;28.33;;;22.52;;
52158;SDS011;38145;53.182;6.284;2023-05-07T01:02:44;25.98;;;21.05;;
52158;SDS011;38145;53.182;6.284;2023-05-07T01:05:11;30.33;;;22.45;;
52158;SDS011;38145;53.182;6.284;2023-05-07T01:07:40;29.08;;;22.65;;
52158;SDS011;38145;53.182;6.284;2023-05-07T01:10:07;30.70;;;22.33;;
52158;SDS011;38145;53.182;6.284;2023-05-07T01:12:35;30.33;;;22.13;;
52158;SDS011;38145;53.182;6.284;2023-05-07T01:15:03;30.35;;;22.77;;
52158;SDS011;38145;53.182;6.284;2023-05-07T01:17:39;27.90;;;24.17;;
52158;SDS011;38145;53.182;6.284;2023-05-07T01:20:07;32.97;;;24.65;;
52158;SDS011;38145;53.182;6.284;2023-05-07T01:22:35;33.67;;;24.30;;
52158;SDS011;38145;53.182;6.284;2023-05-07T01:27:29;30.83;;;22.55;;
52158;SDS011;38145;53.182;6.284;2023-05-07T01:29:56;30.92;;;23.27;;
52158;SDS011;38145;53.182;6.284;2023-05-07T01:32:27;28.33;;;23.67;;
52158;SDS011;38145;53.182;6.284;2023-05-07T01:35:00;28.73;;;22.48;;
52158;SDS011;38145;53.182;6.284;2023-05-07T01:37:28;31.13;;;24.80;;
52158;SDS011;38145;53.182;6.284;2023-05-07T01:39:55;33.40;;;24.67;;
52158;SDS011;38145;53.182;6.284;2023-05-07T01:42:21;33.30;;;24.80;;
52158;SDS011;38145;53.182;6.284;2023-05-07T01:44:48;32.22;;;25.05;;
52158;SDS011;38145;53.182;6.284;2023-05-07T01:47:14;33.30;;;22.90;;
52158;SDS011;38145;53.182;6.284;2023-05-07T01:49:41;30.95;;;23.33;;
52158;SDS011;38145;53.182;6.284;2023-05-07T01:52:08;31.33;;;24.67;;
52158;SDS011;38145;53.182;6.284;2023-05-07T01:54:35;28.50;;;24.60;;
52158;SDS011;38145;53.182;6.284;2023-05-07T01:57:01;30.88;;;22.70;;
52158;SDS011;38145;53.182;6.284;2023-05-07T01:59:28;29.40;;;23.38;;
52158;SDS011;38145;53.182;6.284;2023-05-07T02:01:53;31.10;;;23.17;;
52158;SDS011;38145;53.182;6.284;2023-05-07T02:04:20;31.00;;;23.70;;
52158;SDS011;38145;53.182;6.284;2023-05-07T02:06:46;31.45;;;24.38;;
52158;SDS011;38145;53.182;6.284;2023-05-07T02:09:13;32.90;;;25.85;;
52158;SDS011;38145;53.182;6.284;2023-05-07T02:11:40;31.80;;;24.08;;
52158;SDS011;38145;53.182;6.284;2023-05-07T02:14:06;32.00;;;24.20;;
52158;SDS011;38145;53.182;6.284;2023-05-07T02:16:32;33.67;;;24.15;;
52158;SDS011;38145;53.182;6.284;2023-05-07T02:18:58;30.33;;;24.58;;
52158;SDS011;38145;53.182;6.284;2023-05-07T02:21:25;32.40;;;25.17;;
52158;SDS011;38145;53.182;6.284;2023-05-07T02:23:52;30.83;;;24.48;;
52158;SDS011;38145;53.182;6.284;2023-05-07T02:26:21;32.50;;;24.55;;
52158;SDS011;38145;53.182;6.284;2023-05-07T02:28:48;31.33;;;25.08;;
52158;SDS011;38145;53.182;6.284;2023-05-07T02:31:15;33.42;;;26.67;;
52158;SDS011;38145;53.182;6.284;2023-05-07T02:33:41;31.42;;;24.40;;
52158;SDS011;38145;53.182;6.284;2023-05-07T02:36:08;33.72;;;26.35;;
52158;SDS011;38145;53.182;6.284;2023-05-07T02:38:35;35.38;;;28.02;;
52158;SDS011;38145;53.182;6.284;2023-05-07T02:41:02;34.65;;;26.25;;
52158;SDS011;38145;53.182;6.284;2023-05-07T02:43:29;34.65;;;25.77;;
52158;SDS011;38145;53.182;6.284;2023-05-07T02:46:00;35.50;;;27.88;;
52158;SDS011;38145;53.182;6.284;2023-05-07T02:48:27;39.65;;;27.73;;
52158;SDS011;38145;53.182;6.284;2023-05-07T02:50:54;34.47;;;27.55;;
52158;SDS011;38145;53.182;6.284;2023-05-07T02:53:20;39.88;;;28.60;;
52158;SDS011;38145;53.182;6.284;2023-05-07T02:55:46;36.47;;;29.55;;
52158;SDS011;38145;53.182;6.284;2023-05-07T02:58:12;36.65;;;28.65;;
52158;SDS011;38145;53.182;6.284;2023-05-07T03:00:38;39.22;;;27.73;;
52158;SDS011;38145;53.182;6.284;2023-05-07T03:03:03;37.60;;;28.38;;
52158;SDS011;38145;53.182;6.284;2023-05-07T03:05:29;37.88;;;27.95;;
52158;SDS011;38145;53.182;6.284;2023-05-07T03:07:57;36.50;;;27.27;;
52158;SDS011;38145;53.182;6.284;2023-05-07T03:10:24;35.75;;;28.45;;
52158;SDS011;38145;53.182;6.284;2023-05-07T03:12:50;37.95;;;28.27;;
52158;SDS011;38145;53.182;6.284;2023-05-07T03:15:17;40.72;;;30.27;;
52158;SDS011;38145;53.182;6.284;2023-05-07T03:17:43;37.25;;;27.92;;
52158;SDS011;38145;53.182;6.284;2023-05-07T03:20:10;40.72;;;30.95;;
52158;SDS011;38145;53.182;6.284;2023-05-07T03:22:36;42.30;;;29.50;;
52158;SDS011;38145;53.182;6.284;2023-05-07T03:25:02;41.90;;;31.10;;
52158;SDS011;38145;53.182;6.284;2023-05-07T03:27:29;43.07;;;28.27;;
52158;SDS011;38145;53.182;6.284;2023-05-07T03:29:56;39.25;;;28.92;;
52158;SDS011;38145;53.182;6.284;2023-05-07T03:32:22;40.47;;;29.50;;
52158;SDS011;38145;53.182;6.284;2023-05-07T03:34:48;41.38;;;30.23;;
52158;SDS011;38145;53.182;6.284;2023-05-07T03:37:15;41.08;;;30.20;;
52158;SDS011;38145;53.182;6.284;2023-05-07T03:39:43;43.22;;;30.50;;
52158;SDS011;38145;53.182;6.284;2023-05-07T03:42:12;43.38;;;30.80;;
52158;SDS011;38145;53.182;6.284;2023-05-07T03:44:39;42.88;;;30.77;;
52158;SDS011;38145;53.182;6.284;2023-05-07T03:47:12;42.28;;;30.25;;
52158;SDS011;38145;53.182;6.284;2023-05-07T03:49:39;44.53;;;30.95;;
52158;SDS011;38145;53.182;6.284;2023-05-07T03:52:06;41.47;;;29.65;;
52158;SDS011;38145;53.182;6.284;2023-05-07T03:54:32;45.88;;;30.63;;
52158;SDS011;38145;53.182;6.284;2023-05-07T03:56:58;43.17;;;31.00;;
52158;SDS011;38145;53.182;6.284;2023-05-07T03:59:24;45.20;;;30.77;;
52158;SDS011;38145;53.182;6.284;2023-05-07T04:01:51;47.15;;;30.35;;
52158;SDS011;38145;53.182;6.284;2023-05-07T04:04:17;49.78;;;32.47;;
52158;SDS011;38145;53.182;6.284;2023-05-07T04:06:43;45.70;;;32.10;;
52158;SDS011;38145;53.182;6.284;2023-05-07T04:09:09;48.47;;;32.17;;
52158;SDS011;38145;53.182;6.284;2023-05-07T04:11:36;45.55;;;31.85;;
52158;SDS011;38145;53.182;6.284;2023-05-07T04:14:04;43.22;;;30.58;;
52158;SDS011;38145;53.182;6.284;2023-05-07T04:16:31;50.03;;;31.85;;
52158;SDS011;38145;53.182;6.284;2023-05-07T04:18:58;45.88;;;30.92;;
52158;SDS011;38145;53.182;6.284;2023-05-07T04:21:33;46.65;;;31.50;;
52158;SDS011;38145;53.182;6.284;2023-05-07T04:23:59;46.13;;;30.63;;
52158;SDS011;38145;53.182;6.284;2023-05-07T04:26:28;45.22;;;32.03;;
52158;SDS011;38145;53.182;6.284;2023-05-07T04:28:54;46.33;;;31.52;;
52158;SDS011;38145;53.182;6.284;2023-05-07T04:31:20;48.33;;;32.83;;
52158;SDS011;38145;53.182;6.284;2023-05-07T04:33:46;45.00;;;32.50;;
52158;SDS011;38145;53.182;6.284;2023-05-07T04:36:12;44.35;;;30.98;;
52158;SDS011;38145;53.182;6.284;2023-05-07T04:38:38;46.45;;;32.33;;
52158;SDS011;38145;53.182;6.284;2023-05-07T04:41:05;47.13;;;32.17;;
52158;SDS011;38145;53.182;6.284;2023-05-07T04:43:33;48.42;;;32.45;;
52158;SDS011;38145;53.182;6.284;2023-05-07T04:45:59;45.70;;;31.48;;
52158;SDS011;38145;53.182;6.284;2023-05-07T04:48:25;47.67;;;32.53;;
52158;SDS011;38145;53.182;6.284;2023-05-07T04:50:51;46.75;;;33.47;;
52158;SDS011;38145;53.182;6.284;2023-05-07T04:53:18;43.25;;;31.70;;
52158;SDS011;38145;53.182;6.284;2023-05-07T04:55:44;47.15;;;32.05;;
52158;SDS011;38145;53.182;6.284;2023-05-07T04:58:11;45.65;;;31.02;;
52158;SDS011;38145;53.182;6.284;2023-05-07T05:00:37;45.55;;;32.42;;
52158;SDS011;38145;53.182;6.284;2023-05-07T05:03:04;43.95;;;30.55;;
52158;SDS011;38145;53.182;6.284;2023-05-07T05:05:31;41.70;;;30.75;;
52158;SDS011;38145;53.182;6.284;2023-05-07T05:07:57;44.78;;;30.52;;
52158;SDS011;38145;53.182;6.284;2023-05-07T05:10:23;44.22;;;31.65;;
52158;SDS011;38145;53.182;6.284;2023-05-07T05:12:50;43.67;;;31.27;;
52158;SDS011;38145;53.182;6.284;2023-05-07T05:15:16;43.92;;;31.25;;
52158;SDS011;38145;53.182;6.284;2023-05-07T05:17:42;44.25;;;30.75;;
52158;SDS011;38145;53.182;6.284;2023-05-07T05:20:08;40.58;;;30.73;;
52158;SDS011;38145;53.182;6.284;2023-05-07T05:22:35;40.35;;;30.50;;
52158;SDS011;38145;53.182;6.284;2023-05-07T05:25:01;41.30;;;30.25;;
52158;SDS011;38145;53.182;6.284;2023-05-07T05:27:28;46.42;;;31.73;;
52158;SDS011;38145;53.182;6.284;2023-05-07T05:29:54;43.88;;;31.15;;
52158;SDS011;38145;53.182;6.284;2023-05-07T05:32:20;43.20;;;30.40;;
52158;SDS011;38145;53.182;6.284;2023-05-07T05:34:46;41.45;;;29.40;;
52158;SDS011;38145;53.182;6.284;2023-05-07T05:37:12;35.17;;;26.55;;
52158;SDS011;38145;53.182;6.284;2023-05-07T05:39:38;40.13;;;28.80;;
52158;SDS011;38145;53.182;6.284;2023-05-07T05:42:04;37.10;;;27.95;;
52158;SDS011;38145;53.182;6.284;2023-05-07T05:44:30;42.13;;;29.63;;
52158;SDS011;38145;53.182;6.284;2023-05-07T05:46:56;39.88;;;28.50;;
52158;SDS011;38145;53.182;6.284;2023-05-07T05:49:24;36.97;;;28.38;;
52158;SDS011;38145;53.182;6.284;2023-05-07T05:51:50;43.13;;;29.65;;
52158;SDS011;38145;53.182;6.284;2023-05-07T05:54:16;37.83;;;27.85;;
52158;SDS011;38145;53.182;6.284;2023-05-07T05:56:42;37.10;;;28.52;;
52158;SDS011;38145;53.182;6.284;2023-05-07T05:59:07;37.10;;;28.05;;
52158;SDS011;38145;53.182;6.284;2023-05-07T06:01:33;39.17;;;27.45;;
52158;SDS011;38145;53.182;6.284;2023-05-07T06:03:59;34.17;;;27.08;;
52158;SDS011;38145;53.182;6.284;2023-05-07T06:06:25;38.47;;;27.42;;
52158;SDS011;38145;53.182;6.284;2023-05-07T06:08:51;33.90;;;26.65;;
52158;SDS011;38145;53.182;6.284;2023-05-07T06:11:17;31.33;;;26.00;;
52158;SDS011;38145;53.182;6.284;2023-05-07T06:13:43;35.75;;;27.33;;
52158;SDS011;38145;53.182;6.284;2023-05-07T06:16:09;36.58;;;25.95;;
52158;SDS011;38145;53.182;6.284;2023-05-07T06:18:35;36.17;;;26.15;;
52158;SDS011;38145;53.182;6.284;2023-05-07T06:21:02;32.70;;;25.65;;
52158;SDS011;38145;53.182;6.284;2023-05-07T06:23:31;34.33;;;26.70;;
52158;SDS011;38145;53.182;6.284;2023-05-07T06:25:56;39.65;;;27.85;;
52158;SDS011;38145;53.182;6.284;2023-05-07T06:28:22;34.28;;;25.17;;
52158;SDS011;38145;53.182;6.284;2023-05-07T06:30:48;33.83;;;25.58;;
52158;SDS011;38145;53.182;6.284;2023-05-07T06:33:15;35.38;;;26.42;;
52158;SDS011;38145;53.182;6.284;2023-05-07T06:35:41;33.60;;;26.20;;
52158;SDS011;38145;53.182;6.284;2023-05-07T06:38:07;34.03;;;27.33;;
52158;SDS011;38145;53.182;6.284;2023-05-07T06:40:33;36.25;;;25.23;;
52158;SDS011;38145;53.182;6.284;2023-05-07T06:42:59;34.97;;;27.27;;
52158;SDS011;38145;53.182;6.284;2023-05-07T06:45:25;32.05;;;26.35;;
52158;SDS011;38145;53.182;6.284;2023-05-07T06:47:51;33.25;;;26.63;;
52158;SDS011;38145;53.182;6.284;2023-05-07T06:50:16;33.10;;;25.80;;
52158;SDS011;38145;53.182;6.284;2023-05-07T06:52:42;32.35;;;25.83;;
52158;SDS011;38145;53.182;6.284;2023-05-07T06:55:08;32.55;;;24.67;;
52158;SDS011;38145;53.182;6.284;2023-05-07T06:57:36;31.63;;;24.98;;
52158;SDS011;38145;53.182;6.284;2023-05-07T07:00:03;34.45;;;26.42;;
52158;SDS011;38145;53.182;6.284;2023-05-07T07:02:32;30.10;;;24.92;;
52158;SDS011;38145;53.182;6.284;2023-05-07T07:04:58;33.83;;;25.50;;
52158;SDS011;38145;53.182;6.284;2023-05-07T07:07:24;34.38;;;27.40;;
52158;SDS011;38145;53.182;6.284;2023-05-07T07:09:50;32.42;;;24.45;;
52158;SDS011;38145;53.182;6.284;2023-05-07T07:12:16;32.40;;;26.05;;
52158;SDS011;38145;53.182;6.284;2023-05-07T07:14:42;33.75;;;25.35;;
52158;SDS011;38145;53.182;6.284;2023-05-07T07:17:08;34.45;;;25.48;;
52158;SDS011;38145;53.182;6.284;2023-05-07T07:19:35;34.00;;;25.63;;
52158;SDS011;38145;53.182;6.284;2023-05-07T07:22:00;34.80;;;25.95;;
52158;SDS011;38145;53.182;6.284;2023-05-07T07:24:27;30.55;;;24.80;;
52158;SDS011;38145;53.182;6.284;2023-05-07T07:26:53;29.75;;;24.60;;
52158;SDS011;38145;53.182;6.284;2023-05-07T07:29:20;32.13;;;24.73;;
52158;SDS011;38145;53.182;6.284;2023-05-07T07:31:47;35.83;;;25.45;;
52158;SDS011;38145;53.182;6.284;2023-05-07T07:34:14;38.15;;;25.10;;
52158;SDS011;38145;53.182;6.284;2023-05-07T07:36:40;31.95;;;24.92;;
52158;SDS011;38145;53.182;6.284;2023-05-07T07:39:06;30.17;;;23.40;;
52158;SDS011;38145;53.182;6.284;2023-05-07T07:41:33;34.47;;;26.70;;
52158;SDS011;38145;53.182;6.284;2023-05-07T07:43:59;36.58;;;26.05;;
52158;SDS011;38145;53.182;6.284;2023-05-07T07:46:29;31.58;;;25.75;;
52158;SDS011;38145;53.182;6.284;2023-05-07T07:48:55;32.63;;;26.23;;
52158;SDS011;38145;53.182;6.284;2023-05-07T07:51:24;33.47;;;25.75;;
52158;SDS011;38145;53.182;6.284;2023-05-07T07:53:49;31.70;;;25.38;;
52158;SDS011;38145;53.182;6.284;2023-05-07T07:56:16;36.78;;;27.15;;
52158;SDS011;38145;53.182;6.284;2023-05-07T07:58:43;31.52;;;25.45;;
52158;SDS011;38145;53.182;6.284;2023-05-07T08:01:09;35.35;;;27.23;;
52158;SDS011;38145;53.182;6.284;2023-05-07T08:03:37;34.67;;;25.48;;
52158;SDS011;38145;53.182;6.284;2023-05-07T08:06:03;34.22;;;26.77;;
52158;SDS011;38145;53.182;6.284;2023-05-07T08:08:29;32.88;;;25.58;;
52158;SDS011;38145;53.182;6.284;2023-05-07T08:10:55;33.70;;;26.05;;
52158;SDS011;38145;53.182;6.284;2023-05-07T08:13:21;31.75;;;24.75;;
52158;SDS011;38145;53.182;6.284;2023-05-07T08:15:47;36.08;;;26.38;;
52158;SDS011;38145;53.182;6.284;2023-05-07T08:18:13;35.88;;;26.00;;
52158;SDS011;38145;53.182;6.284;2023-05-07T08:20:38;33.60;;;25.80;;
52158;SDS011;38145;53.182;6.284;2023-05-07T08:23:05;34.15;;;26.88;;
52158;SDS011;38145;53.182;6.284;2023-05-07T08:25:33;31.73;;;24.33;;
52158;SDS011;38145;53.182;6.284;2023-05-07T08:27:59;33.97;;;25.60;;
52158;SDS011;38145;53.182;6.284;2023-05-07T08:30:26;34.83;;;26.77;;
52158;SDS011;38145;53.182;6.284;2023-05-07T08:32:52;33.80;;;25.67;;
52158;SDS011;38145;53.182;6.284;2023-05-07T08:35:18;32.92;;;25.40;;
52158;SDS011;38145;53.182;6.284;2023-05-07T08:37:43;34.60;;;26.58;;
52158;SDS011;38145;53.182;6.284;2023-05-07T08:40:09;33.13;;;26.63;;
52158;SDS011;38145;53.182;6.284;2023-05-07T08:42:36;35.03;;;27.30;;
52158;SDS011;38145;53.182;6.284;2023-05-07T08:45:03;33.03;;;26.13;;
52158;SDS011;38145;53.182;6.284;2023-05-07T08:47:34;33.83;;;29.13;;
52158;SDS011;38145;53.182;6.284;2023-05-07T08:50:05;33.25;;;25.85;;
52158;SDS011;38145;53.182;6.284;2023-05-07T08:52:32;36.03;;;27.23;;
52158;SDS011;38145;53.182;6.284;2023-05-07T08:54:58;36.67;;;26.95;;
52158;SDS011;38145;53.182;6.284;2023-05-07T08:57:25;37.95;;;26.75;;
52158;SDS011;38145;53.182;6.284;2023-05-07T08:59:51;34.25;;;27.23;;
52158;SDS011;38145;53.182;6.284;2023-05-07T09:02:17;35.42;;;27.23;;
52158;SDS011;38145;53.182;6.284;2023-05-07T09:04:43;35.17;;;28.45;;
52158;SDS011;38145;53.182;6.284;2023-05-07T09:07:09;36.40;;;27.88;;
52158;SDS011;38145;53.182;6.284;2023-05-07T09:09:35;35.72;;;28.35;;
52158;SDS011;38145;53.182;6.284;2023-05-07T09:12:00;36.72;;;28.42;;
52158;SDS011;38145;53.182;6.284;2023-05-07T09:14:28;37.72;;;27.30;;
52158;SDS011;38145;53.182;6.284;2023-05-07T09:16:54;35.50;;;28.00;;
52158;SDS011;38145;53.182;6.284;2023-05-07T09:19:23;36.70;;;27.35;;
52158;SDS011;38145;53.182;6.284;2023-05-07T09:21:57;35.97;;;28.70;;
52158;SDS011;38145;53.182;6.284;2023-05-07T09:24:25;33.88;;;25.77;;
52158;SDS011;38145;53.182;6.284;2023-05-07T09:26:51;37.08;;;27.55;;
52158;SDS011;38145;53.182;6.284;2023-05-07T09:29:16;36.47;;;27.48;;
52158;SDS011;38145;53.182;6.284;2023-05-07T09:31:43;34.38;;;26.63;;
52158;SDS011;38145;53.182;6.284;2023-05-07T09:34:09;35.08;;;27.92;;
52158;SDS011;38145;53.182;6.284;2023-05-07T09:36:35;32.83;;;27.00;;
52158;SDS011;38145;53.182;6.284;2023-05-07T09:39:01;34.70;;;28.20;;
52158;SDS011;38145;53.182;6.284;2023-05-07T09:41:27;31.35;;;25.15;;
52158;SDS011;38145;53.182;6.284;2023-05-07T09:43:57;35.25;;;26.92;;
52158;SDS011;38145;53.182;6.284;2023-05-07T09:46:27;35.85;;;27.90;;
52158;SDS011;38145;53.182;6.284;2023-05-07T09:48:57;35.75;;;27.38;;
52158;SDS011;38145;53.182;6.284;2023-05-07T09:51:25;31.00;;;26.23;;
52158;SDS011;38145;53.182;6.284;2023-05-07T09:53:55;31.85;;;26.52;;
52158;SDS011;38145;53.182;6.284;2023-05-07T09:56:26;34.80;;;27.25;;
52158;SDS011;38145;53.182;6.284;2023-05-07T09:58:52;31.73;;;27.25;;
52158;SDS011;38145;53.182;6.284;2023-05-07T10:01:21;31.10;;;25.60;;
52158;SDS011;38145;53.182;6.284;2023-05-07T10:03:48;31.23;;;24.77;;
52158;SDS011;38145;53.182;6.284;2023-05-07T10:08:42;29.63;;;25.45;;
52158;SDS011;38145;53.182;6.284;2023-05-07T10:11:09;32.50;;;25.20;;
52158;SDS011;38145;53.182;6.284;2023-05-07T10:13:35;34.78;;;24.67;;
52158;SDS011;38145;53.182;6.284;2023-05-07T10:16:03;28.80;;;25.00;;
52158;SDS011;38145;53.182;6.284;2023-05-07T10:18:30;29.67;;;24.30;;
52158;SDS011;38145;53.182;6.284;2023-05-07T10:21:04;29.92;;;23.75;;
52158;SDS011;38145;53.182;6.284;2023-05-07T10:23:36;32.72;;;26.02;;
52158;SDS011;38145;53.182;6.284;2023-05-07T10:26:04;28.83;;;24.90;;
52158;SDS011;38145;53.182;6.284;2023-05-07T10:28:34;28.77;;;25.08;;
52158;SDS011;38145;53.182;6.284;2023-05-07T10:31:07;27.85;;;23.40;;
52158;SDS011;38145;53.182;6.284;2023-05-07T10:33:42;27.45;;;24.52;;
52158;SDS011;38145;53.182;6.284;2023-05-07T10:36:12;28.15;;;23.75;;
52158;SDS011;38145;53.182;6.284;2023-05-07T10:38:38;26.80;;;23.90;;
52158;SDS011;38145;53.182;6.284;2023-05-07T10:41:07;29.65;;;24.95;;
52158;SDS011;38145;53.182;6.284;2023-05-07T10:43:38;27.52;;;23.67;;
52158;SDS011;38145;53.182;6.284;2023-05-07T10:46:10;24.80;;;21.75;;
52158;SDS011;38145;53.182;6.284;2023-05-07T10:49:09;27.88;;;22.52;;
52158;SDS011;38145;53.182;6.284;2023-05-07T10:51:27;26.30;;;22.65;;
52158;SDS011;38145;53.182;6.284;2023-05-07T10:54:23;25.70;;;23.02;;
52158;SDS011;38145;53.182;6.284;2023-05-07T10:59:32;26.27;;;22.80;;
52158;SDS011;38145;53.182;6.284;2023-05-07T11:02:02;26.05;;;22.95;;
52158;SDS011;38145;53.182;6.284;2023-05-07T11:04:31;28.00;;;22.70;;
52158;SDS011;38145;53.182;6.284;2023-05-07T11:15:03;27.52;;;21.40;;
52158;SDS011;38145;53.182;6.284;2023-05-07T11:17:52;27.08;;;23.13;;
52158;SDS011;38145;53.182;6.284;2023-05-07T11:20:20;23.95;;;21.20;;
52158;SDS011;38145;53.182;6.284;2023-05-07T11:23:12;25.85;;;21.00;;
52158;SDS011;38145;53.182;6.284;2023-05-07T11:26:05;24.02;;;21.42;;
52158;SDS011;38145;53.182;6.284;2023-05-07T11:28:37;24.90;;;21.25;;
52158;SDS011;38145;53.182;6.284;2023-05-07T11:31:04;24.38;;;21.05;;
52158;SDS011;38145;53.182;6.284;2023-05-07T11:33:32;23.63;;;21.10;;
52158;SDS011;38145;53.182;6.284;2023-05-07T11:35:59;23.52;;;21.02;;
52158;SDS011;38145;53.182;6.284;2023-05-07T11:38:28;23.65;;;20.25;;
52158;SDS011;38145;53.182;6.284;2023-05-07T11:43:22;22.37;;;19.97;;
52158;SDS011;38145;53.182;6.284;2023-05-07T11:45:48;23.50;;;21.00;;
52158;SDS011;38145;53.182;6.284;2023-05-07T11:48:15;23.63;;;21.17;;
52158;SDS011;38145;53.182;6.284;2023-05-07T11:50:51;24.48;;;19.40;;
52158;SDS011;38145;53.182;6.284;2023-05-07T11:53:18;21.30;;;19.13;;
52158;SDS011;38145;53.182;6.284;2023-05-07T11:55:45;22.87;;;19.83;;
52158;SDS011;38145;53.182;6.284;2023-05-07T11:58:12;20.60;;;18.67;;
52158;SDS011;38145;53.182;6.284;2023-05-07T12:00:49;22.42;;;20.00;;
52158;SDS011;38145;53.182;6.284;2023-05-07T12:03:15;23.48;;;19.80;;
52158;SDS011;38145;53.182;6.284;2023-05-07T12:05:44;20.58;;;18.33;;
52158;SDS011;38145;53.182;6.284;2023-05-07T12:08:13;21.58;;;19.30;;
52158;SDS011;38145;53.182;6.284;2023-05-07T12:10:41;21.83;;;19.52;;
52158;SDS011;38145;53.182;6.284;2023-05-07T12:13:14;21.13;;;19.00;;
52158;SDS011;38145;53.182;6.284;2023-05-07T12:15:42;20.58;;;18.40;;
52158;SDS011;38145;53.182;6.284;2023-05-07T12:18:08;21.80;;;19.40;;
52158;SDS011;38145;53.182;6.284;2023-05-07T12:20:36;19.88;;;17.77;;
52158;SDS011;38145;53.182;6.284;2023-05-07T12:23:02;21.00;;;18.77;;
52158;SDS011;38145;53.182;6.284;2023-05-07T12:25:30;21.55;;;19.35;;
52158;SDS011;38145;53.182;6.284;2023-05-07T12:28:01;20.40;;;18.27;;
52158;SDS011;38145;53.182;6.284;2023-05-07T12:30:27;22.92;;;19.20;;
52158;SDS011;38145;53.182;6.284;2023-05-07T12:32:53;29.95;;;20.48;;
52158;SDS011;38145;53.182;6.284;2023-05-07T12:35:26;19.58;;;17.58;;
52158;SDS011;38145;53.182;6.284;2023-05-07T12:37:55;20.30;;;18.20;;
52158;SDS011;38145;53.182;6.284;2023-05-07T12:40:21;20.75;;;18.50;;
52158;SDS011;38145;53.182;6.284;2023-05-07T12:42:47;20.38;;;18.27;;
52158;SDS011;38145;53.182;6.284;2023-05-07T12:45:20;19.92;;;17.95;;
52158;SDS011;38145;53.182;6.284;2023-05-07T12:47:47;19.90;;;17.80;;
52158;SDS011;38145;53.182;6.284;2023-05-07T12:50:13;20.65;;;18.55;;
52158;SDS011;38145;53.182;6.284;2023-05-07T12:52:40;20.67;;;18.58;;
52158;SDS011;38145;53.182;6.284;2023-05-07T12:55:08;19.67;;;17.75;;
52158;SDS011;38145;53.182;6.284;2023-05-07T12:57:41;20.98;;;18.85;;
52158;SDS011;38145;53.182;6.284;2023-05-07T13:00:08;20.25;;;18.20;;
52158;SDS011;38145;53.182;6.284;2023-05-07T13:02:39;20.27;;;18.27;;
52158;SDS011;38145;53.182;6.284;2023-05-07T13:05:06;19.30;;;17.10;;
52158;SDS011;38145;53.182;6.284;2023-05-07T13:07:33;20.70;;;18.50;;
52158;SDS011;38145;53.182;6.284;2023-05-07T13:09:59;18.98;;;17.08;;
52158;SDS011;38145;53.182;6.284;2023-05-07T13:12:25;19.10;;;17.20;;
52158;SDS011;38145;53.182;6.284;2023-05-07T13:14:51;20.27;;;18.17;;
52158;SDS011;38145;53.182;6.284;2023-05-07T13:17:17;19.50;;;17.60;;
52158;SDS011;38145;53.182;6.284;2023-05-07T13:19:43;20.48;;;18.45;;
52158;SDS011;38145;53.182;6.284;2023-05-07T13:22:09;19.38;;;17.50;;
52158;SDS011;38145;53.182;6.284;2023-05-07T13:24:36;19.88;;;17.98;;
52158;SDS011;38145;53.182;6.284;2023-05-07T13:27:02;18.10;;;16.35;;
52158;SDS011;38145;53.182;6.284;2023-05-07T13:29:28;18.83;;;16.77;;
52158;SDS011;38145;53.182;6.284;2023-05-07T13:31:56;25.80;;;18.85;;
52158;SDS011;38145;53.182;6.284;2023-05-07T13:34:22;19.20;;;17.27;;
52158;SDS011;38145;53.182;6.284;2023-05-07T13:36:49;19.77;;;17.77;;
52158;SDS011;38145;53.182;6.284;2023-05-07T13:39:15;18.48;;;16.63;;
52158;SDS011;38145;53.182;6.284;2023-05-07T13:41:41;18.52;;;16.63;;
52158;SDS011;38145;53.182;6.284;2023-05-07T13:44:07;19.00;;;17.30;;
52158;SDS011;38145;53.182;6.284;2023-05-07T13:46:33;17.65;;;16.02;;
52158;SDS011;38145;53.182;6.284;2023-05-07T13:48:59;18.50;;;16.55;;
52158;SDS011;38145;53.182;6.284;2023-05-07T13:51:25;19.38;;;17.30;;
52158;SDS011;38145;53.182;6.284;2023-05-07T13:53:51;18.45;;;16.65;;
52158;SDS011;38145;53.182;6.284;2023-05-07T13:56:17;17.42;;;15.75;;
52158;SDS011;38145;53.182;6.284;2023-05-07T13:58:43;18.02;;;16.00;;
52158;SDS011;38145;53.182;6.284;2023-05-07T14:01:09;18.10;;;16.23;;
52158;SDS011;38145;53.182;6.284;2023-05-07T14:03:35;21.75;;;17.33;;
52158;SDS011;38145;53.182;6.284;2023-05-07T14:06:03;17.65;;;16.00;;
52158;SDS011;38145;53.182;6.284;2023-05-07T14:08:29;19.77;;;17.77;;
52158;SDS011;38145;53.182;6.284;2023-05-07T14:10:55;18.00;;;16.20;;
52158;SDS011;38145;53.182;6.284;2023-05-07T14:13:21;18.02;;;16.42;;
52158;SDS011;38145;53.182;6.284;2023-05-07T14:15:47;18.67;;;16.83;;
52158;SDS011;38145;53.182;6.284;2023-05-07T14:18:14;18.40;;;16.70;;
52158;SDS011;38145;53.182;6.284;2023-05-07T14:20:41;18.95;;;17.15;;
52158;SDS011;38145;53.182;6.284;2023-05-07T14:23:09;19.90;;;16.35;;
52158;SDS011;38145;53.182;6.284;2023-05-07T14:25:35;18.83;;;17.05;;
52158;SDS011;38145;53.182;6.284;2023-05-07T14:28:01;18.70;;;16.80;;
52158;SDS011;38145;53.182;6.284;2023-05-07T14:30:26;19.23;;;17.48;;
52158;SDS011;38145;53.182;6.284;2023-05-07T14:32:52;17.92;;;16.17;;
52158;SDS011;38145;53.182;6.284;2023-05-07T14:35:19;18.80;;;16.88;;
52158;SDS011;38145;53.182;6.284;2023-05-07T14:37:45;19.02;;;17.13;;
52158;SDS011;38145;53.182;6.284;2023-05-07T14:40:11;19.00;;;17.20;;
52158;SDS011;38145;53.182;6.284;2023-05-07T14:42:37;18.33;;;16.48;;